Hakuryoumaru No.15 — JD2439 — position and weather

sailwx.info

Track history (hours):
 
Tides and Currents Weather Stations Pressure Air Temp Water Temp Dewpoint Dewpoint Depression Visibility Wind Speed Wind Dir Waves Ship Positions

Hakuryoumaru No.15

Last reported at 2015-Apr-19 04:33 UTC. Time now 2015-Apr-19 04:37 UTC.
Position N 35°27' E 139°47'.

Length 80 m; draft 5.4 m.

Type: Tanker. MMSI: 431000243.

Date/timePositionNaut miles runAvg speedWind from/ knotsBaromVisibWave heightAir tempDewpointWater temp
2015-Apr-19 04:33N 35°27' E 139°47'7 6.7
2015-Apr-19 03:33N 35°29' E 139°55'4 3.5
2015-Apr-19 02:33N 35°30' E 139°59'2 2.1
2015-Apr-19 01:33N 35°30' E 140°02'0 0.0
2015-Apr-19 00:31N 35°30' E 140°02'0 0.0
2015-Apr-18 23:34N 35°30' E 140°02'3 2.5
2015-Apr-18 22:33N 35°31' E 139°59'0 0.1
2015-Apr-18 21:34N 35°31' E 139°59'0 0.0
2015-Apr-18 20:34N 35°31' E 139°59'0 0.1
2015-Apr-18 19:33N 35°31' E 139°59'0 0.0
2015-Apr-18 18:33N 35°31' E 139°59'0 0.0
2015-Apr-18 17:34N 35°31' E 139°59'0 0.0
2015-Apr-18 16:33N 35°31' E 139°59'0 0.0
2015-Apr-18 15:31N 35°31' E 139°59'0 0.0
2015-Apr-18 14:34N 35°31' E 139°59'0 0.0
2015-Apr-18 13:33N 35°31' E 139°59'0 0.0
2015-Apr-18 12:32N 35°31' E 139°59'0 0.0
2015-Apr-18 11:32N 35°31' E 139°59'0 0.1
2015-Apr-18 10:33N 35°31' E 139°59'0 0.0
2015-Apr-18 09:33N 35°31' E 139°59'0 0.0
2015-Apr-18 08:33N 35°31' E 139°59'5 4.9
2015-Apr-18 07:33N 35°29' E 139°54'1313.3
2015-Apr-18 06:33N 35°19' E 139°44'1312.5
2015-Apr-18 05:33N 35°06' E 139°44'12 0.3
2015-Apr-16 09:16N 35°02' E 139°30'810.7
2015-Apr-16 08:32N 35°06' E 139°39'1010.5
2015-Apr-16 07:33N 35°14' E 139°46'1111.0
2015-Apr-16 06:31N 35°25' E 139°44'1111.5
2015-Apr-16 05:34N 35°30' E 139°56'4 4.5
2015-Apr-16 04:33N 35°30' E 140°02'0 0.0
2015-Apr-16 03:33N 35°30' E 140°02'0 0.0
2015-Apr-16 02:34N 35°30' E 140°02'0 0.0
2015-Apr-16 01:33N 35°30' E 140°02'0 0.0
2015-Apr-16 00:34N 35°30' E 140°02'0 0.0
2015-Apr-15 23:33N 35°30' E 140°02'0 0.1
2015-Apr-15 22:33N 35°30' E 140°02'6 5.7
2015-Apr-15 21:33N 35°35' E 139°59'6 5.7
2015-Apr-15 20:33N 35°41' E 139°59'0 0.0
2015-Apr-15 19:32N 35°41' E 139°59'0 0.0
2015-Apr-15 18:33N 35°41' E 139°59'0 0.0
2015-Apr-15 17:33N 35°41' E 139°59'0 0.0
2015-Apr-15 16:34N 35°41' E 139°59'0 0.0
2015-Apr-15 15:33N 35°41' E 139°59'0 0.0
2015-Apr-15 14:33N 35°41' E 139°59'0 0.0
2015-Apr-15 13:33N 35°41' E 139°59'0 0.0
2015-Apr-15 12:33N 35°41' E 139°59'0 0.0
2015-Apr-15 11:33N 35°41' E 139°59'0 0.0
2015-Apr-15 10:31N 35°41' E 139°59'0 0.0
2015-Apr-15 09:33N 35°41' E 139°59'0 0.0
2015-Apr-15 08:33N 35°41' E 139°59'0 0.0
2015-Apr-15 07:34N 35°41' E 139°59'0 0.0
2015-Apr-15 06:34N 35°41' E 139°59'0 0.0
2015-Apr-15 05:32N 35°41' E 139°59'0 0.0
2015-Apr-15 04:33N 35°41' E 139°59'1110.5
2015-Apr-15 03:32N 35°31' E 139°54'9 9.1
2015-Apr-15 02:33N 35°22' E 139°52'0 0.0
2015-Apr-15 01:33N 35°22' E 139°52'0 0.0
2015-Apr-15 00:34N 35°22' E 139°52'0 0.0
2015-Apr-14 23:33N 35°22' E 139°52'2 2.1
2015-Apr-14 22:34N 35°24' E 139°51'0 0.0
2015-Apr-14 21:33N 35°24' E 139°51'0 0.0
2015-Apr-14 20:33N 35°24' E 139°51'0 0.0
2015-Apr-14 19:20N 35°24' E 139°51'0 0.0
2015-Apr-14 18:32N 35°24' E 139°51'0 0.0
2015-Apr-14 17:32N 35°24' E 139°51'0 0.1
2015-Apr-14 16:29N 35°24' E 139°51'0 0.0
2015-Apr-14 15:32N 35°24' E 139°51'1 1.1
2015-Apr-14 14:33N 35°25' E 139°49'9 9.4
2015-Apr-14 13:33N 35°15' E 139°47'1211.8
2015-Apr-14 12:33N 35°04' E 139°44'1211.5
2015-Apr-14 11:29N 34°52' E 139°47'1412.2
2015-Apr-14 10:22N 34°56' E 140°03'3912.0
2015-Apr-14 07:08N 35°23' E 140°38'45 1.1
2015-Apr-12 16:08N 36°05' E 140°54'3312.7
2015-Apr-12 13:29N 35°32' E 140°48'1213.1
2015-Apr-12 12:33N 35°23' E 140°38'2512.4
2015-Apr-12 10:33N 35°04' E 140°19'1212.0
2015-Apr-12 09:31N 34°58' E 140°06'1711.8
2015-Apr-12 08:06N 34°51' E 139°47'17 0.7
2015-Apr-11 07:13N 35°03' E 139°32'812.5
2015-Apr-11 06:33N 35°07' E 139°41'1111.4
2015-Apr-11 05:33N 35°18' E 139°44'1110.7
2015-Apr-11 04:33N 35°28' E 139°49'1110.8
2015-Apr-11 03:33N 35°30' E 140°02'0 0.0
2015-Apr-11 02:30N 35°30' E 140°02'0 0.0
2015-Apr-11 01:30N 35°30' E 140°02'0 0.0
2015-Apr-11 00:33N 35°30' E 140°02'0 0.0
2015-Apr-10 23:33N 35°30' E 140°02'2 1.7
2015-Apr-10 22:33N 35°31' E 140°00'1 0.6
2015-Apr-10 21:31N 35°31' E 139°60'0 0.0
2015-Apr-10 20:28N 35°31' E 139°60'0 0.0
2015-Apr-10 19:25N 35°31' E 139°60'0 0.1
2015-Apr-10 18:31N 35°31' E 139°60'0 0.0
2015-Apr-10 17:31N 35°31' E 139°60'0 0.0
2015-Apr-10 16:31N 35°31' E 139°60'8 8.0
2015-Apr-10 15:33N 35°28' E 139°51'1111.4
2015-Apr-10 14:33N 35°18' E 139°45'1212.0
2015-Apr-10 13:33N 35°06' E 139°45'49 9.0
2015-Apr-10 08:08N 35°25' E 140°40'28 7.8
2015-Apr-10 04:33N 35°53' E 140°41'0 0.0
2015-Apr-10 03:32N 35°53' E 140°41'0 0.0
2015-Apr-10 02:27N 35°53' E 140°41'0 0.0
2015-Apr-10 01:31N 35°53' E 140°41'0 0.0
2015-Apr-10 00:30N 35°53' E 140°41'0 0.2
2015-Apr-09 23:32N 35°53' E 140°41'4 1.7
2015-Apr-09 21:05N 35°57' E 140°42'0 0.0
2015-Apr-09 20:23N 35°57' E 140°42'0 0.0
2015-Apr-09 19:28N 35°57' E 140°42'0 0.0
2015-Apr-09 17:20N 35°57' E 140°42'1 0.1
2015-Apr-09 09:25N 35°58' E 140°43'  
Track history (hours):
 
Tides and Currents Weather Stations Pressure Air Temp Water Temp Dewpoint Dewpoint Depression Visibility Wind Speed Wind Dir Waves Ship Positions

Hakuryoumaru No.15

Last reported at 2015-Apr-19 04:33 UTC. Time now 2015-Apr-19 04:37 UTC.
Position N 35°27' E 139°47'.

Length 80 m; draft 5.4 m.

Type: Tanker. MMSI: 431000243.

Date/timePositionNaut miles runAvg speedWind from/ knotsBaromVisibWave heightAir tempDewpointWater temp
2015-Apr-19 04:33N 35°27' E 139°47'7 6.7
2015-Apr-19 03:33N 35°29' E 139°55'4 3.5
2015-Apr-19 02:33N 35°30' E 139°59'2 2.1
2015-Apr-19 01:33N 35°30' E 140°02'0 0.0
2015-Apr-19 00:31N 35°30' E 140°02'0 0.0
2015-Apr-18 23:34N 35°30' E 140°02'3 2.5
2015-Apr-18 22:33N 35°31' E 139°59'0 0.1
2015-Apr-18 21:34N 35°31' E 139°59'0 0.0
2015-Apr-18 20:34N 35°31' E 139°59'0 0.1
2015-Apr-18 19:33N 35°31' E 139°59'0 0.0
2015-Apr-18 18:33N 35°31' E 139°59'0 0.0
2015-Apr-18 17:34N 35°31' E 139°59'0 0.0
2015-Apr-18 16:33N 35°31' E 139°59'0 0.0
2015-Apr-18 15:31N 35°31' E 139°59'0 0.0
2015-Apr-18 14:34N 35°31' E 139°59'0 0.0
2015-Apr-18 13:33N 35°31' E 139°59'0 0.0
2015-Apr-18 12:32N 35°31' E 139°59'0 0.0
2015-Apr-18 11:32N 35°31' E 139°59'0 0.1
2015-Apr-18 10:33N 35°31' E 139°59'0 0.0
2015-Apr-18 09:33N 35°31' E 139°59'0 0.0
2015-Apr-18 08:33N 35°31' E 139°59'5 4.9
2015-Apr-18 07:33N 35°29' E 139°54'1313.3
2015-Apr-18 06:33N 35°19' E 139°44'1312.5
2015-Apr-18 05:33N 35°06' E 139°44'12 0.3
2015-Apr-16 09:16N 35°02' E 139°30'810.7
2015-Apr-16 08:32N 35°06' E 139°39'1010.5
2015-Apr-16 07:33N 35°14' E 139°46'1111.0
2015-Apr-16 06:31N 35°25' E 139°44'1111.5
2015-Apr-16 05:34N 35°30' E 139°56'4 4.5
2015-Apr-16 04:33N 35°30' E 140°02'0 0.0
2015-Apr-16 03:33N 35°30' E 140°02'0 0.0
2015-Apr-16 02:34N 35°30' E 140°02'0 0.0
2015-Apr-16 01:33N 35°30' E 140°02'0 0.0
2015-Apr-16 00:34N 35°30' E 140°02'0 0.0
2015-Apr-15 23:33N 35°30' E 140°02'0 0.1
2015-Apr-15 22:33N 35°30' E 140°02'6 5.7
2015-Apr-15 21:33N 35°35' E 139°59'6 5.7
2015-Apr-15 20:33N 35°41' E 139°59'0 0.0
2015-Apr-15 19:32N 35°41' E 139°59'0 0.0
2015-Apr-15 18:33N 35°41' E 139°59'0 0.0
2015-Apr-15 17:33N 35°41' E 139°59'0 0.0
2015-Apr-15 16:34N 35°41' E 139°59'0 0.0
2015-Apr-15 15:33N 35°41' E 139°59'0 0.0
2015-Apr-15 14:33N 35°41' E 139°59'0 0.0
2015-Apr-15 13:33N 35°41' E 139°59'0 0.0
2015-Apr-15 12:33N 35°41' E 139°59'0 0.0
2015-Apr-15 11:33N 35°41' E 139°59'0 0.0
2015-Apr-15 10:31N 35°41' E 139°59'0 0.0
2015-Apr-15 09:33N 35°41' E 139°59'0 0.0
2015-Apr-15 08:33N 35°41' E 139°59'0 0.0
2015-Apr-15 07:34N 35°41' E 139°59'0 0.0
2015-Apr-15 06:34N 35°41' E 139°59'0 0.0
2015-Apr-15 05:32N 35°41' E 139°59'0 0.0
2015-Apr-15 04:33N 35°41' E 139°59'1110.5
2015-Apr-15 03:32N 35°31' E 139°54'9 9.1
2015-Apr-15 02:33N 35°22' E 139°52'0 0.0
2015-Apr-15 01:33N 35°22' E 139°52'0 0.0
2015-Apr-15 00:34N 35°22' E 139°52'0 0.0
2015-Apr-14 23:33N 35°22' E 139°52'2 2.1
2015-Apr-14 22:34N 35°24' E 139°51'0 0.0
2015-Apr-14 21:33N 35°24' E 139°51'0 0.0
2015-Apr-14 20:33N 35°24' E 139°51'0 0.0
2015-Apr-14 19:20N 35°24' E 139°51'0 0.0
2015-Apr-14 18:32N 35°24' E 139°51'0 0.0
2015-Apr-14 17:32N 35°24' E 139°51'0 0.1
2015-Apr-14 16:29N 35°24' E 139°51'0 0.0
2015-Apr-14 15:32N 35°24' E 139°51'1 1.1
2015-Apr-14 14:33N 35°25' E 139°49'9 9.4
2015-Apr-14 13:33N 35°15' E 139°47'1211.8
2015-Apr-14 12:33N 35°04' E 139°44'1211.5
2015-Apr-14 11:29N 34°52' E 139°47'1412.2
2015-Apr-14 10:22N 34°56' E 140°03'3912.0
2015-Apr-14 07:08N 35°23' E 140°38'45 1.1
2015-Apr-12 16:08N 36°05' E 140°54'3312.7
2015-Apr-12 13:29N 35°32' E 140°48'1213.1
2015-Apr-12 12:33N 35°23' E 140°38'2512.4
2015-Apr-12 10:33N 35°04' E 140°19'1212.0
2015-Apr-12 09:31N 34°58' E 140°06'1711.8
2015-Apr-12 08:06N 34°51' E 139°47'17 0.7
2015-Apr-11 07:13N 35°03' E 139°32'812.5
2015-Apr-11 06:33N 35°07' E 139°41'1111.4
2015-Apr-11 05:33N 35°18' E 139°44'1110.7
2015-Apr-11 04:33N 35°28' E 139°49'1110.8
2015-Apr-11 03:33N 35°30' E 140°02'0 0.0
2015-Apr-11 02:30N 35°30' E 140°02'0 0.0
2015-Apr-11 01:30N 35°30' E 140°02'0 0.0
2015-Apr-11 00:33N 35°30' E 140°02'0 0.0
2015-Apr-10 23:33N 35°30' E 140°02'2 1.7
2015-Apr-10 22:33N 35°31' E 140°00'1 0.6
2015-Apr-10 21:31N 35°31' E 139°60'0 0.0
2015-Apr-10 20:28N 35°31' E 139°60'0 0.0
2015-Apr-10 19:25N 35°31' E 139°60'0 0.1
2015-Apr-10 18:31N 35°31' E 139°60'0 0.0
2015-Apr-10 17:31N 35°31' E 139°60'0 0.0
2015-Apr-10 16:31N 35°31' E 139°60'8 8.0
2015-Apr-10 15:33N 35°28' E 139°51'1111.4
2015-Apr-10 14:33N 35°18' E 139°45'1212.0
2015-Apr-10 13:33N 35°06' E 139°45'49 9.0
2015-Apr-10 08:08N 35°25' E 140°40'28 7.8
2015-Apr-10 04:33N 35°53' E 140°41'0 0.0
2015-Apr-10 03:32N 35°53' E 140°41'0 0.0
2015-Apr-10 02:27N 35°53' E 140°41'0 0.0
2015-Apr-10 01:31N 35°53' E 140°41'0 0.0
2015-Apr-10 00:30N 35°53' E 140°41'0 0.2
2015-Apr-09 23:32N 35°53' E 140°41'4 1.7
2015-Apr-09 21:05N 35°57' E 140°42'0 0.0
2015-Apr-09 20:23N 35°57' E 140°42'0 0.0
2015-Apr-09 19:28N 35°57' E 140°42'0 0.0
2015-Apr-09 17:20N 35°57' E 140°42'1 0.1
2015-Apr-09 09:25N 35°58' E 140°43'  

Dump ship's entire track history